Time;durP1;ratioP1;P1;durP2;ratioP2;P2;SDS_P1;SDS_P2;PMS_P1;PMS_P2;Temp;Humidity;BMP_temperature;BMP_pressure;BME280_temperature;BME280_humidity;BME280_pressure;Samples;Min_cycle;Max_cycle;Signal;HPM_P1;HPM_P2
2022/12/01 00:00:57;;;;;;;73.35;24.52;;;8.10;99.90;;;;;;5003791;28;20018;-71
2022/12/01 00:03:24;;;;;;;66.80;22.77;;;8.10;99.90;;;;;;5000076;28;20025;-72
2022/12/01 00:06:24;;;;;;;72.03;24.42;;;8.10;99.90;;;;;;5013225;28;20029;-73
2022/12/01 00:11:37;;;;;;;74.57;24.52;;;8.10;99.90;;;;;;5002153;28;20053;-70
2022/12/01 00:14:04;;;;;;;70.07;23.95;;;8.00;99.90;;;;;;5014969;28;20058;-71
2022/12/01 00:16:32;;;;;;;71.63;23.08;;;8.10;99.90;;;;;;5002033;28;20562;-72
2022/12/01 00:19:00;;;;;;;71.57;21.77;;;8.00;99.90;;;;;;5001514;28;20029;-72
2022/12/01 00:21:27;;;;;;;71.65;23.85;;;8.00;99.90;;;;;;5017195;28;20838;-71
2022/12/01 00:23:55;;;;;;;69.53;24.13;;;8.00;99.90;;;;;;5001107;28;20439;-70
2022/12/01 00:26:24;;;;;;;69.15;22.77;;;8.10;99.90;;;;;;5004570;28;20030;-71
2022/12/01 00:28:51;;;;;;;71.32;23.42;;;8.10;99.90;;;;;;4999367;28;20026;-71
2022/12/01 00:31:17;;;;;;;72.78;23.80;;;8.10;99.90;;;;;;5007354;28;20030;-72
2022/12/01 00:33:43;;;;;;;83.30;24.45;;;8.10;99.90;;;;;;5004708;28;20038;-72
2022/12/01 00:36:08;;;;;;;82.63;25.15;;;8.00;99.90;;;;;;5004546;28;20026;-71
2022/12/01 00:38:37;;;;;;;80.28;24.83;;;8.00;99.90;;;;;;5027065;28;20408;-71
2022/12/01 00:41:03;;;;;;;85.22;25.58;;;7.90;99.90;;;;;;5002008;28;20699;-71
2022/12/01 00:43:29;;;;;;;77.82;25.10;;;7.90;99.90;;;;;;5017791;28;20661;-72
2022/12/01 00:45:55;;;;;;;83.03;25.48;;;7.90;99.90;;;;;;5004414;28;20097;-72
2022/12/01 00:48:21;;;;;;;69.55;25.33;;;7.90;99.90;;;;;;5014516;28;20054;-71
2022/12/01 00:50:47;;;;;;;83.28;24.20;;;7.90;99.90;;;;;;5000823;28;20283;-71
2022/12/01 00:53:13;;;;;;;87.47;25.75;;;7.90;99.90;;;;;;4997118;28;20072;-71
2022/12/01 00:55:41;;;;;;;82.18;26.70;;;7.90;99.90;;;;;;5007956;28;20030;-72
2022/12/01 00:58:06;;;;;;;81.22;24.85;;;7.90;99.90;;;;;;5022210;28;20419;-71
2022/12/01 01:00:32;;;;;;;83.20;25.02;;;7.90;99.90;;;;;;5007065;28;20041;-70
2022/12/01 01:02:58;;;;;;;86.13;27.48;;;7.90;99.90;;;;;;5017453;28;20026;-71
2022/12/01 01:05:26;;;;;;;94.00;27.25;;;7.90;99.90;;;;;;5014664;28;20025;-72
2022/12/01 01:07:54;;;;;;;75.60;25.00;;;8.00;99.90;;;;;;5005376;28;20026;-72
2022/12/01 01:10:20;;;;;;;79.03;26.38;;;7.90;99.90;;;;;;5024320;28;20037;-71
2022/12/01 01:12:45;;;;;;;83.30;27.13;;;8.00;99.90;;;;;;5020037;28;20030;-70
2022/12/01 01:15:11;;;;;;;82.90;26.92;;;8.00;99.90;;;;;;5008339;28;20036;-71
2022/12/01 01:17:37;;;;;;;90.53;26.00;;;8.00;99.90;;;;;;5006790;28;20025;-73
2022/12/01 01:20:03;;;;;;;87.35;26.63;;;8.00;99.90;;;;;;5002428;28;20038;-71
2022/12/01 01:22:28;;;;;;;99.10;27.23;;;8.00;99.90;;;;;;5006693;28;20060;-71
2022/12/01 01:24:56;;;;;;;75.90;24.23;;;8.00;99.90;;;;;;5008417;28;20535;-69
2022/12/01 01:27:22;;;;;;;77.25;25.15;;;8.00;99.90;;;;;;5016588;28;20493;-71
2022/12/01 01:29:47;;;;;;;86.15;27.17;;;8.00;99.90;;;;;;5004210;28;20038;-71
2022/12/01 01:32:15;;;;;;;87.97;27.58;;;8.00;99.90;;;;;;5006039;28;20030;-71
2022/12/01 01:34:41;;;;;;;85.32;26.30;;;8.00;99.90;;;;;;5015937;28;20042;-70
2022/12/01 01:37:09;;;;;;;81.82;26.38;;;7.90;99.90;;;;;;5016338;28;20049;-70
2022/12/01 01:39:35;;;;;;;91.53;27.88;;;7.90;99.90;;;;;;5008213;28;20498;-72
2022/12/01 01:42:00;;;;;;;93.03;27.88;;;7.90;99.90;;;;;;5007849;28;20034;-72
2022/12/01 01:44:49;;;;;;;84.32;26.30;;;7.90;99.90;;;;;;5007781;28;20080;-71
2022/12/01 01:47:30;;;;;;;96.00;26.77;;;7.90;99.90;;;;;;5004874;28;20026;-72
2022/12/01 01:50:04;;;;;;;81.85;25.73;;;7.90;99.90;;;;;;5004914;28;20030;-71
2022/12/01 01:52:29;;;;;;;88.10;26.60;;;8.00;99.90;;;;;;5001300;28;20038;-72
2022/12/01 01:54:55;;;;;;;86.47;26.75;;;8.00;99.90;;;;;;5001914;28;20495;-70
2022/12/01 01:57:30;;;;;;;79.38;26.63;;;8.00;99.90;;;;;;5003159;28;20029;-71
2022/12/01 02:00:17;;;;;;;82.20;25.02;;;8.00;99.90;;;;;;5005802;28;20026;-69
2022/12/01 02:02:45;;;;;;;88.22;25.92;;;8.10;99.90;;;;;;5004513;28;20422;-74
2022/12/01 02:05:22;;;;;;;86.13;28.00;;;8.10;99.90;;;;;;5005217;28;20344;-69
2022/12/01 02:07:51;;;;;;;86.93;27.60;;;8.10;99.90;;;;;;5020508;28;20487;-72
2022/12/01 02:10:23;;;;;;;85.55;27.65;;;8.10;99.90;;;;;;5006955;28;20022;-70
2022/12/01 02:13:05;;;;;;;92.35;28.20;;;8.10;99.90;;;;;;5001284;28;20054;-71
2022/12/01 02:15:54;;;;;;;85.38;26.05;;;8.00;99.90;;;;;;5005336;28;20018;-72
2022/12/01 02:18:45;;;;;;;89.93;27.83;;;8.00;99.90;;;;;;5019426;28;20085;-71
2022/12/01 02:21:35;;;;;;;86.30;26.65;;;8.00;99.90;;;;;;5019196;28;20443;-72
2022/12/01 02:24:13;;;;;;;83.35;27.52;;;8.00;99.90;;;;;;5003764;28;20053;-71
2022/12/01 02:27:16;;;;;;;86.13;26.60;;;7.90;99.90;;;;;;5004461;28;20102;-72
2022/12/01 02:30:11;;;;;;;81.95;25.83;;;7.90;99.90;;;;;;5006216;28;20452;-71
2022/12/01 02:33:15;;;;;;;92.03;28.83;;;7.90;99.90;;;;;;5001194;28;20054;-71
2022/12/01 02:36:01;;;;;;;91.20;28.08;;;7.80;99.90;;;;;;5002347;28;20046;-71
2022/12/01 02:38:39;;;;;;;92.43;25.75;;;7.80;99.90;;;;;;5004814;28;20041;-71
2022/12/01 02:41:18;;;;;;;89.70;26.33;;;7.80;99.90;;;;;;5001622;28;20045;-71
2022/12/01 02:43:53;;;;;;;89.28;25.55;;;7.80;99.90;;;;;;5000290;28;20385;-71
2022/12/01 02:46:26;;;;;;;84.25;27.02;;;7.80;99.90;;;;;;5018732;28;20394;-71
2022/12/01 02:48:56;;;;;;;89.72;25.90;;;7.80;99.90;;;;;;5003802;28;20049;-72
2022/12/01 02:51:31;;;;;;;84.30;24.98;;;7.80;99.90;;;;;;5003717;28;20044;-71
2022/12/01 02:54:02;;;;;;;73.20;23.52;;;7.80;99.90;;;;;;5017385;28;20031;-72
2022/12/01 02:56:30;;;;;;;76.70;23.23;;;7.80;99.90;;;;;;5002754;28;20087;-70
2022/12/01 02:58:55;;;;;;;76.82;24.48;;;7.80;99.90;;;;;;5003627;28;20092;-71
2022/12/01 03:01:26;;;;;;;74.28;23.90;;;7.80;99.90;;;;;;5020160;28;20037;-69
2022/12/01 03:04:20;;;;;;;81.40;23.73;;;7.90;99.90;;;;;;5004654;28;20026;-72
2022/12/01 03:07:04;;;;;;;71.85;23.88;;;7.90;99.90;;;;;;5003920;28;20096;-71
2022/12/01 03:09:33;;;;;;;70.72;23.75;;;7.90;99.90;;;;;;5000938;28;20096;-72
2022/12/01 03:12:27;;;;;;;79.88;25.02;;;8.00;99.90;;;;;;5006752;28;20022;-72
2022/12/01 03:15:09;;;;;;;68.43;23.10;;;8.00;99.90;;;;;;5002779;28;20026;-70
2022/12/01 03:17:59;;;;;;;66.68;21.25;;;7.90;99.90;;;;;;5006662;28;20034;-71
2022/12/01 03:20:36;;;;;;;71.50;22.15;;;7.90;99.90;;;;;;5020265;28;20061;-71
2022/12/01 03:23:30;;;;;;;65.20;22.17;;;8.00;99.90;;;;;;5001426;28;20560;-71
2022/12/01 03:26:00;;;;;;;74.70;23.00;;;7.90;99.90;;;;;;5002389;28;20123;-71
2022/12/01 03:28:32;;;;;;;64.88;20.60;;;7.90;99.90;;;;;;5002168;28;20030;-72
2022/12/01 03:31:02;;;;;;;63.88;20.52;;;7.90;99.90;;;;;;5003264;28;20061;-72
2022/12/01 03:33:37;;;;;;;64.47;21.30;;;8.00;99.90;;;;;;5005257;28;20034;-70
2022/12/01 03:36:23;;;;;;;74.72;20.77;;;8.00;99.90;;;;;;5006804;28;20048;-71
2022/12/01 03:38:59;;;;;;;65.85;21.27;;;8.10;99.90;;;;;;5006937;28;20030;-72
2022/12/01 03:41:34;;;;;;;70.05;21.08;;;8.10;99.90;;;;;;5016405;28;20034;-71
2022/12/01 03:44:20;;;;;;;69.43;21.42;;;8.10;99.90;;;;;;5016380;28;20038;-71
2022/12/01 03:46:54;;;;;;;69.78;21.38;;;8.10;99.90;;;;;;5003477;28;20042;-71
2022/12/01 03:49:22;;;;;;;65.40;21.23;;;8.10;99.90;;;;;;5002908;28;20022;-72
2022/12/01 03:52:02;;;;;;;67.70;21.20;;;8.10;99.90;;;;;;5001856;28;20034;-71
2022/12/01 03:54:33;;;;;;;79.78;21.25;;;8.10;99.90;;;;;;5002737;28;20125;-72
2022/12/01 03:57:04;;;;;;;65.57;20.95;;;8.10;99.90;;;;;;5004895;28;20041;-72
2022/12/01 03:59:34;;;;;;;71.07;22.00;;;8.20;99.90;;;;;;5004087;28;20084;-72
2022/12/01 04:02:03;;;;;;;72.68;21.20;;;8.10;99.90;;;;;;5019626;28;20033;-70
2022/12/01 04:04:29;;;;;;;75.85;22.38;;;8.20;99.90;;;;;;5018068;28;20065;-75
2022/12/01 04:06:55;;;;;;;65.28;20.38;;;8.10;99.90;;;;;;5017051;28;20021;-74
2022/12/01 04:09:20;;;;;;;63.75;19.92;;;8.00;99.90;;;;;;5002028;28;20584;-73
2022/12/01 04:14:30;;;;;;;61.22;19.02;;;8.00;99.90;;;;;;5003363;28;20044;-74
2022/12/01 04:16:58;;;;;;;61.15;19.13;;;8.00;99.90;;;;;;5008646;28;20018;-71
2022/12/01 04:19:24;;;;;;;69.50;20.40;;;8.10;99.90;;;;;;5003897;28;20022;-72
2022/12/01 04:21:49;;;;;;;62.83;18.73;;;8.10;99.90;;;;;;5003279;28;20033;-71
2022/12/01 04:24:17;;;;;;;60.95;19.33;;;8.10;99.90;;;;;;4999832;28;20067;-71
2022/12/01 04:26:45;;;;;;;65.82;18.40;;;8.10;99.90;;;;;;4997912;28;20403;-70
2022/12/01 04:29:13;;;;;;;67.30;20.02;;;8.20;99.90;;;;;;5001674;28;20040;-71
2022/12/01 04:31:42;;;;;;;65.25;19.67;;;8.10;99.90;;;;;;5003254;28;20021;-72
2022/12/01 04:34:09;;;;;;;60.90;19.30;;;8.00;99.90;;;;;;5002908;28;20059;-71
2022/12/01 04:36:37;;;;;;;62.15;18.95;;;8.10;99.90;;;;;;5001110;28;20084;-72
2022/12/01 04:39:03;;;;;;;52.78;18.17;;;8.00;99.90;;;;;;5000167;28;20022;-71
2022/12/01 04:41:29;;;;;;;59.90;19.42;;;8.10;99.90;;;;;;5003403;28;20026;-73
2022/12/01 04:43:55;;;;;;;57.50;18.55;;;8.10;99.90;;;;;;5009682;28;20348;-71
2022/12/01 04:46:21;;;;;;;63.33;19.45;;;8.10;99.90;;;;;;4999461;28;20443;-71
2022/12/01 04:48:52;;;;;;;58.63;18.60;;;8.10;99.90;;;;;;5003883;28;20026;-71
2022/12/01 04:51:18;;;;;;;51.45;17.92;;;8.10;99.90;;;;;;5002562;28;20026;-71
2022/12/01 04:53:43;;;;;;;58.83;17.48;;;8.10;99.90;;;;;;5003658;28;20116;-72
2022/12/01 04:56:09;;;;;;;57.47;16.70;;;8.10;99.90;;;;;;5012913;28;20033;-72
2022/12/01 04:58:36;;;;;;;57.65;17.58;;;8.00;99.90;;;;;;5000077;28;20360;-72
2022/12/01 05:01:04;;;;;;;54.67;18.05;;;7.90;99.90;;;;;;5002574;28;20044;-71
2022/12/01 05:03:29;;;;;;;55.55;17.50;;;7.90;99.90;;;;;;5002462;28;20029;-71
2022/12/01 05:06:11;;;;;;;49.78;17.33;;;7.90;99.90;;;;;;5003623;28;20364;-70
2022/12/01 05:08:37;;;;;;;49.85;17.30;;;7.90;99.90;;;;;;5006100;28;20038;-70
2022/12/01 05:11:06;;;;;;;49.78;18.52;;;7.90;99.90;;;;;;5002042;28;20046;-73
2022/12/01 05:13:36;;;;;;;45.50;16.88;;;7.90;99.90;;;;;;5004996;28;20036;-70
2022/12/01 05:16:20;;;;;;;51.80;18.10;;;7.90;99.90;;;;;;5004509;28;20018;-75
2022/12/01 05:21:44;;;;;;;58.22;19.13;;;8.00;99.90;;;;;;5002751;28;20037;-72
2022/12/01 05:24:11;;;;;;;56.05;20.42;;;7.90;99.90;;;;;;5003916;28;20022;-74
2022/12/01 05:26:39;;;;;;;63.83;20.27;;;8.00;99.90;;;;;;5003638;28;20117;-75
2022/12/01 05:29:05;;;;;;;62.42;19.83;;;7.90;99.90;;;;;;5022128;28;20036;-72
2022/12/01 05:31:31;;;;;;;65.80;21.98;;;7.90;99.90;;;;;;5022975;28;20447;-75
2022/12/01 05:33:57;;;;;;;60.80;21.08;;;7.90;99.90;;;;;;5022170;28;20049;-73
2022/12/01 05:36:22;;;;;;;67.10;23.02;;;7.90;99.90;;;;;;5011892;28;20022;-71
2022/12/01 05:38:48;;;;;;;61.50;23.05;;;7.90;99.90;;;;;;5015301;28;20026;-72
2022/12/01 05:41:14;;;;;;;68.55;22.30;;;8.00;99.90;;;;;;5007214;28;20030;-72
2022/12/01 05:43:39;;;;;;;73.00;22.85;;;7.90;99.90;;;;;;5005959;28;20027;-72
2022/12/01 05:46:05;;;;;;;58.50;21.83;;;7.90;99.90;;;;;;5006756;28;20022;-72
2022/12/01 05:48:33;;;;;;;61.17;22.40;;;7.90;99.90;;;;;;5022880;28;20502;-71
2022/12/01 05:50:59;;;;;;;72.35;25.50;;;7.90;99.90;;;;;;5006929;28;20109;-73
2022/12/01 05:53:25;;;;;;;72.47;25.13;;;7.90;99.90;;;;;;5019597;28;20514;-75
2022/12/01 05:55:53;;;;;;;80.93;25.52;;;7.90;99.90;;;;;;5006072;28;20056;-71
2022/12/01 05:58:18;;;;;;;60.22;23.63;;;7.90;99.90;;;;;;5010732;28;20099;-72
2022/12/01 06:00:44;;;;;;;67.35;25.33;;;7.90;99.90;;;;;;5008965;28;20026;-71
2022/12/01 06:03:12;;;;;;;72.45;25.17;;;7.90;99.90;;;;;;5006694;28;20459;-73
2022/12/01 06:05:38;;;;;;;68.28;25.05;;;7.90;99.90;;;;;;5005557;28;20040;-75
2022/12/01 06:08:04;;;;;;;60.70;24.42;;;8.00;99.90;;;;;;5007153;28;20089;-72
2022/12/01 06:10:29;;;;;;;68.93;26.63;;;7.90;99.90;;;;;;5002403;28;20093;-70
2022/12/01 06:12:57;;;;;;;66.95;26.90;;;7.90;99.90;;;;;;5008641;28;20041;-72
2022/12/01 06:15:23;;;;;;;66.75;26.88;;;7.90;99.90;;;;;;5021633;28;20419;-72
2022/12/01 06:17:49;;;;;;;70.68;26.13;;;7.80;99.90;;;;;;5002951;28;20046;-71
2022/12/01 06:20:14;;;;;;;76.25;25.60;;;7.80;99.90;;;;;;5018250;28;20026;-71
2022/12/01 06:22:40;;;;;;;63.45;25.55;;;7.80;99.90;;;;;;5004255;28;20030;-71
2022/12/01 06:25:07;;;;;;;73.60;25.25;;;7.70;99.90;;;;;;5001091;28;20321;-71
2022/12/01 06:27:32;;;;;;;66.55;26.08;;;7.70;99.90;;;;;;5004208;28;20045;-71
2022/12/01 06:29:58;;;;;;;59.60;24.95;;;7.70;99.90;;;;;;5004551;28;20022;-72
2022/12/01 06:32:26;;;;;;;71.95;25.88;;;7.70;99.90;;;;;;5005790;28;20045;-71
2022/12/01 06:34:52;;;;;;;73.07;26.45;;;7.60;99.90;;;;;;5005003;28;20042;-71
2022/12/01 06:37:17;;;;;;;67.97;27.45;;;7.70;99.90;;;;;;5006145;28;20038;-71
2022/12/01 06:39:47;;;;;;;68.30;25.52;;;7.70;99.90;;;;;;5005422;28;20097;-71
2022/12/01 06:42:14;;;;;;;69.10;27.42;;;7.80;99.90;;;;;;5004665;28;20475;-71
2022/12/01 06:44:39;;;;;;;62.40;25.08;;;7.80;99.90;;;;;;5005379;28;20029;-71
2022/12/01 06:47:07;;;;;;;63.55;25.08;;;7.80;99.90;;;;;;5008883;28;20030;-71
2022/12/01 06:49:33;;;;;;;63.35;24.65;;;7.80;99.90;;;;;;5020750;28;20030;-71
2022/12/01 06:52:01;;;;;;;63.55;25.38;;;7.90;99.90;;;;;;5013339;28;20114;-71
2022/12/01 06:54:27;;;;;;;60.60;25.25;;;7.90;99.90;;;;;;5007948;28;20078;-71
2022/12/01 06:56:53;;;;;;;64.50;26.17;;;7.90;99.90;;;;;;5010519;28;20038;-71
2022/12/01 06:59:18;;;;;;;65.18;25.27;;;7.90;99.90;;;;;;5009305;28;20029;-73
2022/12/01 07:01:44;;;;;;;62.10;24.88;;;7.90;99.90;;;;;;5019016;28;20033;-72
2022/12/01 07:04:10;;;;;;;53.80;24.02;;;7.90;99.90;;;;;;5008112;28;20411;-71
2022/12/01 07:06:38;;;;;;;62.38;25.40;;;7.80;99.90;;;;;;5006275;28;20352;-71
2022/12/01 07:09:04;;;;;;;63.25;25.75;;;7.80;99.90;;;;;;5004927;28;20027;-72
2022/12/01 07:11:31;;;;;;;55.45;24.38;;;7.70;99.90;;;;;;5006986;28;20154;-73
2022/12/01 07:13:59;;;;;;;57.33;24.88;;;7.70;99.90;;;;;;5006115;28;20052;-71
2022/12/01 07:16:27;;;;;;;64.25;25.77;;;7.70;99.90;;;;;;5004885;28;20065;-70
2022/12/01 07:18:55;;;;;;;71.15;25.33;;;7.80;99.90;;;;;;5000082;28;20033;-70
2022/12/01 07:21:25;;;;;;;55.50;24.42;;;7.80;99.90;;;;;;5005928;28;20034;-71
2022/12/01 07:23:53;;;;;;;62.30;25.50;;;7.80;99.90;;;;;;5001731;28;20443;-70
2022/12/01 07:26:19;;;;;;;57.55;25.25;;;7.90;99.90;;;;;;5020240;28;20363;-73
2022/12/01 07:28:45;;;;;;;61.65;25.70;;;7.80;99.90;;;;;;5005434;28;20018;-72
2022/12/01 07:31:14;;;;;;;65.97;25.98;;;7.80;99.90;;;;;;5003507;28;20026;-72
2022/12/01 07:33:42;;;;;;;62.47;25.85;;;7.70;99.90;;;;;;5010123;28;20026;-72
2022/12/01 07:36:11;;;;;;;69.78;24.85;;;7.70;99.90;;;;;;5008608;28;20313;-72
2022/12/01 07:38:37;;;;;;;65.30;28.05;;;7.80;99.90;;;;;;5008602;28;20073;-71
2022/12/01 07:41:05;;;;;;;68.47;25.30;;;7.80;99.90;;;;;;5008668;28;20021;-71
2022/12/01 07:43:31;;;;;;;59.35;25.40;;;7.80;99.90;;;;;;5004850;28;20061;-71
2022/12/01 07:46:12;;;;;;;63.20;25.23;;;7.80;99.90;;;;;;5011300;28;20033;-72
2022/12/01 07:48:41;;;;;;;66.00;25.73;;;7.80;99.90;;;;;;5017825;28;20033;-71
2022/12/01 07:51:11;;;;;;;62.20;25.45;;;7.90;99.90;;;;;;5001029;28;20533;-72
2022/12/01 07:53:37;;;;;;;64.13;25.75;;;7.90;99.90;;;;;;5015425;28;20509;-71
2022/12/01 07:56:04;;;;;;;63.10;25.70;;;7.90;99.90;;;;;;5008127;28;20034;-69
2022/12/01 07:58:30;;;;;;;63.33;26.00;;;7.90;99.90;;;;;;5003087;28;20034;-71
2022/12/01 08:00:56;;;;;;;65.72;26.33;;;7.90;99.90;;;;;;5006519;28;20033;-71
2022/12/01 08:03:24;;;;;;;65.85;25.38;;;8.00;99.90;;;;;;5005463;28;20100;-71
2022/12/01 08:05:57;;;;;;;67.38;25.45;;;7.90;99.90;;;;;;5010921;28;20072;-72
2022/12/01 08:08:23;;;;;;;65.38;25.10;;;7.90;99.90;;;;;;5007411;28;20451;-72
2022/12/01 08:10:51;;;;;;;64.38;26.20;;;7.90;99.90;;;;;;5009453;28;20762;-70
2022/12/01 08:13:17;;;;;;;67.85;27.60;;;7.90;99.90;;;;;;5004975;28;20030;-70
2022/12/01 08:15:45;;;;;;;74.07;28.83;;;8.00;99.90;;;;;;5004427;28;20049;-71
2022/12/01 08:18:11;;;;;;;70.72;27.10;;;8.00;99.90;;;;;;5006160;28;20030;-74
2022/12/01 08:20:37;;;;;;;63.85;24.92;;;8.00;99.90;;;;;;5000206;28;20226;-72
2022/12/01 08:23:06;;;;;;;65.80;27.52;;;8.00;99.90;;;;;;5004392;28;20029;-73
2022/12/01 08:25:32;;;;;;;71.95;28.05;;;8.00;99.90;;;;;;5017864;28;20056;-72
2022/12/01 08:27:59;;;;;;;64.55;27.02;;;8.00;99.90;;;;;;5005634;28;20375;-73
2022/12/01 08:30:28;;;;;;;71.53;27.27;;;8.00;99.90;;;;;;5004635;28;20080;-70
2022/12/01 08:32:56;;;;;;;84.43;29.40;;;8.10;99.90;;;;;;5002013;28;20037;-73
2022/12/01 08:35:22;;;;;;;80.53;27.63;;;8.10;99.90;;;;;;5006515;28;20038;-72
2022/12/01 08:37:52;;;;;;;65.82;26.33;;;8.10;99.90;;;;;;5002398;28;20177;-72
2022/12/01 08:40:19;;;;;;;75.78;26.63;;;8.00;99.90;;;;;;5002379;28;20430;-71
2022/12/01 08:42:45;;;;;;;67.70;26.60;;;8.00;99.90;;;;;;5006010;28;20018;-72
2022/12/01 08:45:12;;;;;;;72.13;28.13;;;8.00;99.90;;;;;;5004469;28;20502;-72
2022/12/01 08:47:38;;;;;;;68.15;26.98;;;8.00;99.90;;;;;;5003003;28;20045;-72
2022/12/01 08:50:05;;;;;;;75.20;27.23;;;8.00;99.90;;;;;;5001859;28;20034;-71
2022/12/01 08:52:32;;;;;;;73.20;27.58;;;8.00;99.90;;;;;;5001256;28;20359;-72
2022/12/01 08:54:58;;;;;;;72.47;27.88;;;8.00;99.90;;;;;;5005071;28;20026;-71
2022/12/01 08:57:23;;;;;;;73.05;27.35;;;8.00;99.90;;;;;;5000730;28;20469;-72
2022/12/01 08:59:49;;;;;;;81.90;28.42;;;8.00;99.90;;;;;;5003709;28;20030;-72
2022/12/01 09:02:17;;;;;;;77.95;27.95;;;8.00;99.90;;;;;;5009601;28;20022;-70
2022/12/01 09:04:45;;;;;;;80.88;28.65;;;8.10;99.90;;;;;;4995274;28;20027;-70
2022/12/01 09:07:15;;;;;;;70.15;27.88;;;8.10;99.90;;;;;;5001604;28;20038;-72
2022/12/01 09:09:42;;;;;;;86.72;29.77;;;8.10;99.90;;;;;;5001316;28;20022;-72
2022/12/01 09:12:08;;;;;;;79.68;28.52;;;8.20;99.90;;;;;;5017014;28;20146;-71
2022/12/01 09:14:39;;;;;;;71.95;28.15;;;8.10;99.90;;;;;;5002059;28;20090;-71
2022/12/01 09:17:05;;;;;;;71.32;28.10;;;8.10;99.90;;;;;;4999707;28;20053;-74
2022/12/01 09:19:31;;;;;;;76.45;28.17;;;8.10;99.90;;;;;;5018833;28;20446;-72
2022/12/01 09:21:57;;;;;;;72.53;26.98;;;8.10;99.90;;;;;;5008065;28;20034;-72
2022/12/01 09:24:25;;;;;;;71.53;26.33;;;8.20;99.90;;;;;;5007013;28;20030;-71
2022/12/01 09:26:55;;;;;;;68.22;27.10;;;8.30;99.90;;;;;;5007731;28;20784;-69
2022/12/01 09:29:21;;;;;;;72.43;26.95;;;8.30;99.90;;;;;;5006845;28;20029;-70
2022/12/01 09:31:46;;;;;;;71.40;25.73;;;8.30;99.90;;;;;;5008073;28;20018;-71
2022/12/01 09:34:15;;;;;;;70.13;26.65;;;8.30;99.90;;;;;;5006751;28;20039;-71
2022/12/01 09:36:44;;;;;;;67.20;25.08;;;8.30;99.90;;;;;;5007456;28;20045;-73
2022/12/01 09:39:14;;;;;;;72.40;25.92;;;8.20;99.90;;;;;;5007032;28;20023;-71
2022/12/01 09:41:45;;;;;;;66.18;25.88;;;8.30;99.90;;;;;;5006248;28;20045;-72
2022/12/01 09:44:29;;;;;;;66.13;26.05;;;8.40;99.90;;;;;;5006448;28;20033;-73
2022/12/01 09:47:05;;;;;;;66.20;25.77;;;8.30;99.90;;;;;;5020941;28;20034;-71
2022/12/01 09:49:46;;;;;;;67.28;25.30;;;8.30;99.90;;;;;;5020549;28;20168;-71
2022/12/01 09:52:15;;;;;;;67.05;26.23;;;8.30;99.90;;;;;;5004521;28;20022;-71
2022/12/01 09:54:41;;;;;;;63.47;25.60;;;8.30;99.90;;;;;;5008316;28;20080;-71
2022/12/01 09:57:31;;;;;;;62.97;24.95;;;8.30;99.90;;;;;;5019964;28;20025;-72
2022/12/01 09:59:59;;;;;;;69.53;24.50;;;8.40;99.90;;;;;;5003897;28;20133;-71
2022/12/01 10:02:57;;;;;;;80.45;30.27;;;8.40;99.90;;;;;;5008015;28;20030;-71
2022/12/01 10:05:30;;;;;;;79.57;27.98;;;8.40;99.90;;;;;;5020263;28;20133;-72
2022/12/01 10:08:00;;;;;;;63.88;23.52;;;8.40;99.90;;;;;;5003868;28;20026;-71
2022/12/01 10:10:37;;;;;;;62.80;23.98;;;8.40;99.90;;;;;;5009650;28;20042;-72
2022/12/01 10:13:28;;;;;;;63.47;23.80;;;8.50;99.90;;;;;;5009366;28;20034;-73
2022/12/01 10:15:59;;;;;;;64.22;24.55;;;8.40;99.90;;;;;;5008627;28;20057;-72
2022/12/01 10:18:53;;;;;;;68.50;25.75;;;8.40;99.90;;;;;;5022844;28;20049;-72
2022/12/01 10:21:28;;;;;;;71.60;25.58;;;8.40;99.90;;;;;;5002234;28;20018;-72
2022/12/01 10:24:41;;;;;;;66.55;25.58;;;8.50;99.90;;;;;;5006144;28;20110;-72
2022/12/01 10:27:20;;;;;;;65.22;25.73;;;8.50;99.90;;;;;;5006041;28;20393;-70
2022/12/01 10:30:14;;;;;;;68.25;25.85;;;8.50;99.90;;;;;;5009205;28;20073;-72
2022/12/01 10:32:57;;;;;;;70.30;26.85;;;8.50;99.90;;;;;;5006573;28;20030;-72
2022/12/01 10:35:28;;;;;;;65.80;25.13;;;8.50;99.90;;;;;;5003120;28;20129;-72
2022/12/01 10:38:01;;;;;;;64.75;24.15;;;8.50;99.90;;;;;;5008908;28;20113;-72
2022/12/01 10:40:34;;;;;;;70.57;24.60;;;8.50;99.90;;;;;;5003107;28;20104;-71
2022/12/01 10:43:02;;;;;;;73.25;25.95;;;8.40;99.90;;;;;;5003856;28;20097;-72
2022/12/01 10:45:35;;;;;;;57.78;23.83;;;8.40;99.90;;;;;;5005975;28;20451;-72
2022/12/01 10:48:15;;;;;;;65.28;26.10;;;8.40;99.90;;;;;;5003752;28;20141;-72
2022/12/01 10:50:45;;;;;;;65.32;24.98;;;8.30;99.90;;;;;;5001596;28;20092;-72
2022/12/01 10:53:24;;;;;;;64.25;25.50;;;8.40;99.90;;;;;;5003928;28;20034;-73
2022/12/01 10:56:19;;;;;;;70.45;25.80;;;8.40;99.90;;;;;;5002693;28;20030;-72
2022/12/01 10:58:49;;;;;;;56.78;23.60;;;8.40;99.90;;;;;;5024094;28;20034;-73
2022/12/01 11:01:17;;;;;;;62.97;24.33;;;8.40;99.90;;;;;;5003790;28;20117;-73
2022/12/01 11:03:43;;;;;;;67.13;23.95;;;8.30;99.90;;;;;;5014659;28;20022;-72
2022/12/01 11:06:09;;;;;;;70.22;25.88;;;8.40;99.90;;;;;;5014417;28;20030;-73
2022/12/01 11:08:42;;;;;;;100.65;36.83;;;8.50;99.90;;;;;;5000176;28;20041;-70
2022/12/01 11:11:28;;;;;;;59.15;23.45;;;8.40;99.90;;;;;;5009226;28;20107;-73
2022/12/01 11:13:56;;;;;;;65.28;23.00;;;8.50;99.90;;;;;;5015974;28;20061;-73
2022/12/01 11:16:41;;;;;;;56.35;22.77;;;8.50;99.90;;;;;;5004518;28;20029;-72
2022/12/01 11:19:19;;;;;;;60.05;23.17;;;8.40;99.90;;;;;;5006187;28;20015;-73
2022/12/01 11:21:50;;;;;;;60.40;22.98;;;8.40;99.90;;;;;;5019130;28;20040;-71
2022/12/01 11:24:31;;;;;;;57.60;21.50;;;8.40;99.90;;;;;;5003071;28;20075;-72
2022/12/01 11:26:58;;;;;;;54.88;21.75;;;8.30;99.90;;;;;;5002197;28;20022;-72
2022/12/01 11:29:38;;;;;;;53.20;20.95;;;8.30;99.90;;;;;;5004631;28;20026;-73
2022/12/01 11:32:16;;;;;;;51.22;21.80;;;8.30;99.90;;;;;;5017239;28;20033;-73
2022/12/01 11:34:48;;;;;;;60.30;20.63;;;8.30;99.90;;;;;;5007189;28;20052;-72
2022/12/01 11:37:19;;;;;;;69.97;21.48;;;8.30;99.90;;;;;;5003455;28;20073;-72
2022/12/01 11:39:46;;;;;;;53.88;20.80;;;8.30;99.90;;;;;;5002897;28;20022;-72
2022/12/01 11:42:12;;;;;;;52.83;20.63;;;8.30;99.90;;;;;;5003277;28;20083;-72
2022/12/01 11:44:39;;;;;;;48.72;19.85;;;8.20;99.90;;;;;;5017940;28;20050;-72
2022/12/01 11:47:17;;;;;;;49.95;19.77;;;8.20;99.90;;;;;;5002972;28;20034;-72
2022/12/01 11:49:46;;;;;;;52.30;20.95;;;8.20;99.90;;;;;;5002838;28;20045;-72
2022/12/01 11:52:26;;;;;;;51.95;20.35;;;8.30;99.90;;;;;;5019025;28;20030;-73
2022/12/01 11:55:10;;;;;;;47.67;18.80;;;8.30;99.90;;;;;;5006703;28;20033;-72
2022/12/01 11:57:41;;;;;;;59.13;21.17;;;8.30;99.90;;;;;;5003044;28;20075;-73
2022/12/01 12:00:19;;;;;;;46.95;19.75;;;8.20;99.90;;;;;;5002865;28;20113;-72
2022/12/01 12:03:15;;;;;;;51.45;19.38;;;8.20;99.90;;;;;;5006594;28;20428;-72
2022/12/01 12:06:05;;;;;;;48.70;19.52;;;8.20;99.90;;;;;;5002918;28;20033;-72
2022/12/01 12:08:42;;;;;;;51.45;17.67;;;8.20;99.90;;;;;;5014242;28;20041;-73
2022/12/01 12:11:18;;;;;;;48.95;18.92;;;8.30;99.90;;;;;;5004482;28;20036;-73
2022/12/01 12:14:23;;;;;;;47.28;17.92;;;8.30;99.90;;;;;;5002606;28;20022;-72
2022/12/01 12:17:06;;;;;;;53.67;18.75;;;8.30;99.90;;;;;;5005742;28;20061;-72
2022/12/01 12:19:53;;;;;;;50.67;18.55;;;8.30;99.90;;;;;;5002248;28;20040;-72
2022/12/01 12:22:19;;;;;;;43.38;17.55;;;8.20;99.90;;;;;;5007252;28;20455;-73
2022/12/01 12:24:56;;;;;;;49.75;18.98;;;8.20;99.90;;;;;;5003970;28;20042;-72
2022/12/01 12:27:22;;;;;;;53.35;19.25;;;8.20;99.90;;;;;;5015123;28;20335;-72
2022/12/01 12:30:15;;;;;;;44.75;17.75;;;8.20;99.90;;;;;;5019095;28;20040;-73
2022/12/01 12:32:47;;;;;;;50.92;18.98;;;8.30;99.90;;;;;;5019424;28;20114;-72
2022/12/01 12:35:32;;;;;;;52.90;19.00;;;8.30;99.90;;;;;;5002543;28;20026;-73
2022/12/01 12:38:07;;;;;;;43.80;18.33;;;8.30;99.90;;;;;;5001092;28;20029;-73
2022/12/01 12:40:54;;;;;;;41.25;19.05;;;8.30;99.90;;;;;;5001592;28;20186;-72
2022/12/01 12:43:25;;;;;;;45.42;17.25;;;8.20;99.90;;;;;;5002270;28;20026;-72
2022/12/01 12:46:10;;;;;;;45.97;17.20;;;8.20;99.90;;;;;;5002816;28;20044;-72
2022/12/01 12:49:01;;;;;;;46.42;16.75;;;8.20;99.90;;;;;;5001822;28;20034;-73
2022/12/01 12:51:36;;;;;;;37.00;16.35;;;8.30;99.90;;;;;;5013756;28;20113;-72
2022/12/01 12:54:19;;;;;;;49.28;17.83;;;8.30;99.90;;;;;;5007905;28;20034;-73
2022/12/01 12:56:48;;;;;;;43.55;16.65;;;8.20;99.90;;;;;;5010014;28;20036;-72
2022/12/01 12:59:26;;;;;;;48.15;18.45;;;8.20;99.90;;;;;;5010653;28;20037;-73
2022/12/01 13:02:01;;;;;;;52.72;16.75;;;8.10;99.90;;;;;;5026523;28;20029;-72
2022/12/01 13:04:38;;;;;;;49.13;17.83;;;8.20;99.90;;;;;;5004718;28;20109;-72
2022/12/01 13:07:35;;;;;;;43.03;16.65;;;8.10;99.90;;;;;;5009619;28;20147;-72